Time;durP1;ratioP1;P1;durP2;ratioP2;P2;SDS_P1;SDS_P2;PMS_P1;PMS_P2;Temp;Humidity;BMP_temperature;BMP_pressure;BME280_temperature;BME280_humidity;BME280_pressure;Samples;Min_cycle;Max_cycle;Signal;HPM_P1;HPM_P2
2024/02/09 00:00:22;;;;;;;14.73;7.20;;;;;;;6.48;60.03;98669.22;6145467;23;20008;-96
2024/02/09 00:03:12;;;;;;;11.93;7.18;;;;;;;6.33;60.30;98666.47;6174892;23;20454;-96
2024/02/09 00:06:17;;;;;;;19.33;8.30;;;;;;;6.30;60.82;98677.66;6161408;23;20039;-96
2024/02/09 00:40:20;;;;;;;13.35;8.20;;;;;;;5.89;61.84;98685.31;6237727;22;19938;-96
2024/02/09 00:42:48;;;;;;;17.00;7.93;;;;;;;5.76;62.18;98659.06;6219578;23;20016;-96
2024/02/09 00:45:18;;;;;;;16.40;8.48;;;;;;;5.78;61.90;98665.75;6145382;23;20032;-96
2024/02/09 00:48:29;;;;;;;14.80;7.97;;;;;;;6.01;61.67;98690.53;6156913;23;20004;-96
2024/02/09 00:51:28;;;;;;;14.18;8.85;;;;;;;5.86;61.33;98667.16;6162218;23;20020;-96
2024/02/09 00:54:03;;;;;;;17.25;9.30;;;;;;;5.94;61.92;98663.22;6138477;23;20002;-96
2024/02/09 00:56:30;;;;;;;18.92;9.00;;;;;;;6.05;61.65;98680.94;6065908;23;20002;-96
2024/02/09 00:59:05;;;;;;;14.32;8.60;;;;;;;5.91;61.64;98664.50;6067402;23;20013;-96
2024/02/09 01:01:37;;;;;;;16.98;8.13;;;;;;;5.76;62.29;98651.03;6090834;23;20002;-96
2024/02/09 01:04:06;;;;;;;14.15;8.27;;;;;;;5.85;61.67;98668.19;6091607;23;20373;-96
2024/02/09 01:06:37;;;;;;;16.20;8.20;;;;;;;5.59;62.29;98635.94;6069494;23;20166;-96
2024/02/09 01:09:07;;;;;;;15.20;7.93;;;;;;;5.53;62.12;98641.50;6112195;23;20010;-95
2024/02/09 01:11:34;;;;;;;16.25;7.82;;;;;;;5.57;62.17;98659.41;6063738;23;20009;-96
2024/02/09 03:04:38;;;;;;;17.17;8.63;;;;;;;4.05;65.48;98647.47;6231208;23;20023;-96
2024/02/09 03:07:26;;;;;;;18.25;9.40;;;;;;;4.14;65.32;98645.19;6207278;23;20011;-96
2024/02/09 03:10:11;;;;;;;;;;;;;;;;;;;;;
2024/02/09 03:21:46;;;;;;;17.77;9.40;;;;;;;4.09;65.37;98661.13;6227174;22;20012;-96
2024/02/09 03:24:23;;;;;;;21.40;10.25;;;;;;;4.05;66.41;98668.78;6196588;23;20091;-96
2024/02/09 03:26:49;;;;;;;24.33;10.45;;;;;;;4.11;66.12;98668.84;6171508;23;20000;-96
2024/02/09 03:29:16;;;;;;;24.35;9.82;;;;;;;4.12;65.24;98684.59;6146330;23;20004;-96
2024/02/09 03:31:48;;;;;;;22.63;10.50;;;;;;;4.03;65.70;98678.88;6146837;23;20001;-96
2024/02/09 03:34:23;;;;;;;20.55;9.43;;;;;;;3.95;65.73;98679.28;6150267;23;19999;-96
2024/02/09 03:36:50;;;;;;;21.02;10.80;;;;;;;3.94;66.50;98684.84;6148741;23;20008;-96
2024/02/09 03:39:18;;;;;;;17.95;9.80;;;;;;;4.01;65.92;98688.16;6147662;23;19997;-96
2024/02/09 03:41:47;;;;;;;23.33;11.45;;;;;;;4.01;65.77;98686.31;6147591;23;20000;-96
2024/02/09 03:44:19;;;;;;;19.20;10.45;;;;;;;4.12;65.00;98681.13;6146043;23;20090;-96
2024/02/09 03:46:44;;;;;;;;;;;;;;;4.19;65.96;98706.56;6148610;23;20001;-96
2024/02/09 03:49:12;;;;;;;15.73;8.75;;;;;;;4.04;65.86;98690.31;6195490;23;19949;-96
2024/02/09 03:51:37;;;;;;;26.45;10.77;;;;;;;4.09;65.55;98703.75;6147819;23;20374;-96
2024/02/09 03:54:08;;;;;;;18.55;9.82;;;;;;;3.89;66.05;98696.22;6146443;23;20024;-96
2024/02/09 03:56:34;;;;;;;20.10;10.35;;;;;;;3.95;65.43;98703.25;6147955;23;20000;-96
2024/02/09 03:59:00;;;;;;;22.05;11.45;;;;;;;3.90;65.92;98695.19;6146952;23;20446;-96
2024/02/09 04:01:29;;;;;;;25.63;11.63;;;;;;;3.92;65.92;98698.41;6147097;23;20008;-96
2024/02/09 04:03:59;;;;;;;23.92;11.40;;;;;;;3.94;65.38;98706.13;6146486;23;20012;-96
2024/02/09 04:06:29;;;;;;;26.50;12.40;;;;;;;3.89;65.80;98693.56;6147501;23;20005;-96
2024/02/09 04:08:57;;;;;;;27.60;12.73;;;;;;;3.93;65.73;98693.88;6146392;23;20509;-96
2024/02/09 04:12:10;;;;;;;27.85;12.23;;;;;;;3.94;65.67;98706.94;6150347;23;20061;-96
2024/02/09 04:14:40;;;;;;;22.25;12.35;;;;;;;3.89;66.31;98712.19;6109803;23;20009;-96
2024/02/09 04:17:19;;;;;;;23.05;11.77;;;;;;;3.69;66.70;98685.22;6113192;23;20369;-96
2024/02/09 04:32:10;;;;;;;28.98;11.88;;;;;;;3.69;66.33;98678.03;6235173;22;20031;-96
2024/02/09 04:34:47;;;;;;;21.02;11.77;;;;;;;3.78;66.64;98705.09;6168048;23;20021;-96
2024/02/09 04:37:15;;;;;;;30.02;12.02;;;;;;;3.81;65.98;98702.75;6145760;23;20480;-96
2024/02/09 04:39:44;;;;;;;34.55;13.32;;;;;;;3.62;66.33;98680.84;6119284;23;20032;-96
2024/02/09 04:42:17;;;;;;;25.50;12.80;;;;;;;3.76;66.85;98715.97;6144009;23;20004;-96
2024/02/09 04:44:49;;;;;;;21.10;10.75;;;;;;;3.60;66.38;98690.13;6167057;23;20005;-96
2024/02/09 04:47:20;;;;;;;22.52;11.68;;;;;;;3.60;66.38;98709.56;6147751;23;20425;-96
2024/02/09 04:49:51;;;;;;;35.83;16.97;;;;;;;3.66;66.38;98715.81;6165736;23;20083;-96
2024/02/09 04:52:51;;;;;;;;;;;;;;;;;;;;;
2024/02/09 04:58:31;;;;;;;21.92;11.05;;;;;;;3.43;66.49;98706.06;6140403;23;20024;-96
2024/02/09 05:01:07;;;;;;;;;;;;;;;;;;;;;
2024/02/09 05:04:07;;;;;;;23.88;12.18;;;;;;;3.34;66.73;98692.34;6160405;23;20016;-96
2024/02/09 05:22:32;;;;;;;39.17;16.02;;;;;;;3.31;67.37;98692.81;6189600;23;20452;-96
2024/02/09 05:25:13;;;;;;;42.25;18.48;;;;;;;3.38;67.55;98713.94;6140045;23;20081;-96
2024/02/09 05:27:49;;;;;;;34.50;16.27;;;;;;;3.31;67.34;98700.00;6144527;23;20062;-96
2024/02/09 05:30:29;;;;;;;28.75;16.40;;;;;;;3.41;67.58;98743.56;6117234;23;20005;-96
2024/02/09 05:33:04;;;;;;;31.10;14.65;;;;;;;3.29;67.43;98737.47;6123223;23;20017;-96
2024/02/09 05:35:38;;;;;;;31.48;15.48;;;;;;;3.43;67.35;98735.34;6121769;23;20032;-96
2024/02/09 05:38:13;;;;;;;33.40;15.10;;;;;;;3.50;67.47;98733.34;6141203;23;20020;-96
2024/02/09 05:40:44;;;;;;;26.15;14.00;;;;;;;3.47;67.02;98722.38;6172218;23;20268;-96
2024/02/09 06:12:32;;;;;;;27.05;14.00;;;;;;;3.79;67.14;98768.75;6220872;22;20024;-94
2024/02/09 06:14:59;;;;;;;30.35;14.75;;;;;;;3.79;66.35;98746.63;6144468;23;20456;-93
2024/02/09 06:17:28;;;;;;;34.10;13.82;;;;;;;3.67;66.97;98749.34;6141376;23;20021;-93
2024/02/09 06:19:55;;;;;;;33.33;14.40;;;;;;;3.60;67.50;98746.84;6140958;23;20143;-95
2024/02/09 06:22:29;;;;;;;32.47;16.02;;;;;;;3.63;66.84;98740.22;6147145;23;20424;-94
2024/02/09 06:28:36;;;;;;;38.15;15.85;;;;;;;3.91;66.05;98733.28;6208151;23;20008;-96
2024/02/09 06:31:31;;;;;;;31.80;15.77;;;;;;;3.98;66.85;98737.38;6179548;23;20024;-96
2024/02/09 06:34:35;;;;;;;32.20;16.75;;;;;;;4.16;66.14;98732.88;6128737;23;20005;-96
2024/02/09 06:37:01;;;;;;;35.50;19.13;;;;;;;4.27;66.03;98731.97;6170051;23;20036;-95
2024/02/09 06:39:26;;;;;;;50.90;21.00;;;;;;;4.27;66.59;98726.66;6166962;23;20005;-92
2024/02/09 06:41:55;;;;;;;38.97;19.92;;;;;;;4.44;65.63;98737.28;6145771;23;20005;-94
2024/02/09 06:44:22;;;;;;;39.58;20.67;;;;;;;4.48;65.63;98722.41;6169467;23;19997;-96
2024/02/09 06:47:37;;;;;;;38.70;18.30;;;;;;;4.60;65.64;98730.34;6147903;23;20040;-95
2024/02/09 06:49:47;;;;;;;30.95;16.42;;;;;;;4.88;64.24;98721.38;6160068;23;20005;-94
2024/02/09 06:52:31;;;;;;;42.05;19.52;;;;;;;5.15;63.53;98726.00;6175324;23;20073;-95
2024/02/09 06:54:57;;;;;;;43.17;20.52;;;;;;;5.40;62.95;98736.94;6140754;23;20102;-96
2024/02/09 06:57:24;;;;;;;34.50;17.65;;;;;;;5.38;62.57;98736.41;6142377;23;20040;-95
2024/02/09 06:59:58;;;;;;;37.03;17.05;;;;;;;5.50;62.11;98711.41;6149637;23;20412;-95
2024/02/09 07:02:40;;;;;;;35.65;16.85;;;;;;;5.41;62.54;98711.84;6151606;23;20001;-96
2024/02/09 07:05:34;;;;;;;25.95;13.15;;;;;;;5.72;61.67;98709.50;6175755;23;20325;-95
2024/02/09 07:14:01;;;;;;;24.23;12.52;;;;;;;6.40;59.95;98720.50;6235766;22;20074;-96
2024/02/09 07:16:26;;;;;;;34.50;17.27;;;;;;;6.30;59.98;98701.72;6147016;23;20475;-96
2024/02/09 07:24:07;;;;;;;34.03;16.03;;;;;;;6.62;59.14;98685.59;6192318;22;20029;-96
2024/02/09 07:26:32;;;;;;;33.92;17.63;;;;;;;6.75;58.66;98691.56;6117376;23;20068;-96
2024/02/09 07:29:01;;;;;;;73.30;28.55;;;;;;;7.00;59.23;98704.25;6127288;23;20005;-96
2024/02/09 07:32:01;;;;;;;42.60;16.65;;;;;;;7.22;57.89;98699.53;6134014;23;20008;-96
2024/02/09 07:34:35;;;;;;;49.10;22.30;;;;;;;7.49;58.07;98711.88;6179410;23;20075;-94
2024/02/09 07:37:03;;;;;;;47.30;21.98;;;;;;;7.71;57.04;98709.00;6140457;23;20388;-95
2024/02/09 07:39:37;;;;;;;53.25;23.80;;;;;;;7.87;56.98;98697.22;6118375;23;20005;-96
2024/02/09 07:42:07;;;;;;;42.88;19.42;;;;;;;8.02;56.68;98687.56;6145930;23;20001;-96
2024/02/09 07:47:59;;;;;;;34.92;15.60;;;;;;;8.64;54.69;98699.88;6118838;23;20460;-92
2024/02/09 07:50:25;;;;;;;32.15;16.95;;;;;;;8.87;53.87;98705.72;6114116;23;20005;-95
2024/02/09 07:55:48;;;;;;;29.08;14.73;;;;;;;9.14;53.75;98678.47;6202227;22;20032;-95
2024/02/09 07:58:24;;;;;;;36.67;16.00;;;;;;;9.36;53.20;98680.78;6155191;22;20021;-96
2024/02/09 08:00:53;;;;;;;35.75;14.68;;;;;;;9.62;52.82;98686.00;6154439;22;20020;-96
2024/02/09 08:03:20;;;;;;;35.65;15.30;;;;;;;9.87;52.69;98699.25;6146257;23;20008;-96
2024/02/09 08:05:48;;;;;;;41.47;17.45;;;;;;;9.90;52.27;98679.88;6150301;23;20052;-95
2024/02/09 08:08:14;;;;;;;35.92;19.17;;;;;;;10.01;52.19;98677.91;6150578;23;20062;-96
2024/02/09 08:10:40;;;;;;;52.00;19.38;;;;;;;10.15;51.53;98667.31;6150207;23;20005;-96
2024/02/09 08:13:09;;;;;;;51.47;21.65;;;;;;;10.39;51.16;98680.81;6146618;23;20011;-96
2024/02/09 08:15:38;;;;;;;43.65;16.83;;;;;;;10.57;50.51;98681.22;6145030;23;20000;-94
2024/02/09 08:18:04;;;;;;;29.30;16.55;;;;;;;10.69;49.73;98671.66;6144855;23;20383;-94
2024/02/09 08:20:36;;;;;;;38.28;13.70;;;;;;;10.77;49.87;98680.16;6141066;23;20012;-94
2024/02/09 08:23:02;;;;;;;31.30;13.75;;;;;;;10.91;49.55;98678.38;6144743;23;20435;-95
2024/02/09 08:25:28;;;;;;;19.23;11.60;;;;;;;10.92;49.20;98659.25;6147095;23;20000;-96
2024/02/09 08:27:56;;;;;;;20.08;12.43;;;;;;;11.18;49.13;98667.00;6147585;23;20063;-96
2024/02/09 08:30:45;;;;;;;;;;;;;;;;;;;;;
2024/02/09 08:33:23;;;;;;;21.13;11.23;;;;;;;11.39;48.17;98661.34;6172601;23;20032;-93
2024/02/09 08:35:49;;;;;;;33.55;12.77;;;;;;;11.65;48.09;98667.16;6166119;23;19997;-92
2024/02/09 08:38:15;;;;;;;26.92;12.25;;;;;;;11.75;47.64;98656.22;6140474;23;20024;-94
2024/02/09 08:40:41;;;;;;;43.58;16.88;;;;;;;11.91;47.67;98656.81;6140277;23;20146;-93
2024/02/09 08:43:06;;;;;;;60.47;15.57;;;;;;;12.08;46.69;98654.38;6139953;23;19996;-91
2024/02/09 08:45:32;;;;;;;31.65;15.40;;;;;;;12.19;46.77;98643.41;6141392;23;20348;-96
2024/02/09 08:48:06;;;;;;;32.05;15.50;;;;;;;12.34;46.67;98637.72;6142931;23;20000;-95
2024/02/09 08:53:17;;;;;;;34.08;16.40;;;;;;;12.63;46.34;98644.75;6222070;22;20343;-96
2024/02/09 09:17:17;;;;;;;30.92;14.95;;;;;;;13.71;44.08;98611.59;6209427;23;19911;-96
2024/02/09 09:36:52;;;;;;;30.30;15.18;;;;;;;15.17;42.59;98610.97;6222543;22;20021;-94
2024/02/09 09:39:39;;;;;;;29.92;12.07;;;;;;;15.20;41.18;98609.53;6148706;23;20016;-96
2024/02/09 09:42:16;;;;;;;28.33;11.85;;;;;;;15.29;40.98;98599.47;6172057;23;20000;-96
2024/02/09 09:44:54;;;;;;;29.20;12.45;;;;;;;15.57;40.70;98603.44;6152626;23;20005;-94
2024/02/09 09:47:28;;;;;;;27.48;11.95;;;;;;;15.77;41.19;98606.66;6175374;23;20068;-96
2024/02/09 09:49:56;;;;;;;21.08;11.13;;;;;;;15.85;40.24;98581.41;6151896;23;20004;-96
2024/02/09 09:52:28;;;;;;;27.08;13.52;;;;;;;16.06;40.17;98586.97;6145675;23;20009;-94
2024/02/09 09:55:00;;;;;;;23.85;12.95;;;;;;;16.17;40.02;98584.69;6146287;23;20004;-96
2024/02/09 09:57:34;;;;;;;24.30;12.93;;;;;;;16.28;39.50;98566.09;6168493;23;20015;-93
2024/02/09 10:00:15;;;;;;;36.28;16.25;;;;;;;16.50;39.50;98557.69;6178657;23;20000;-96
2024/02/09 10:47:30;;;;;;;11.10;4.20;;;;;;;17.96;32.85;98511.72;6227200;22;20025;-94
2024/02/09 10:50:07;;;;;;;15.13;6.72;;;;;;;18.04;32.57;98499.13;6154504;23;20036;-95
2024/02/09 10:52:53;;;;;;;13.57;4.40;;;;;;;17.94;32.29;98501.16;6157147;23;20355;-95
2024/02/09 10:55:34;;;;;;;17.67;5.32;;;;;;;17.94;32.86;98498.44;6158643;23;19984;-96
2024/02/09 10:57:59;;;;;;;10.00;6.00;;;;;;;17.90;33.81;98492.06;6179367;23;20004;-95
2024/02/09 11:00:41;;;;;;;14.45;5.53;;;;;;;17.68;33.75;98485.09;6154343;23;20324;-95
2024/02/09 11:03:27;;;;;;;9.98;4.95;;;;;;;17.60;34.05;98488.72;6160867;23;20024;-94
2024/02/09 11:06:04;;;;;;;12.85;6.50;;;;;;;17.62;33.59;98499.25;6135399;23;20008;-95
2024/02/09 11:08:30;;;;;;;10.98;4.07;;;;;;;17.37;33.35;98491.81;6086927;23;20195;-93
2024/02/09 11:11:00;;;;;;;9.45;3.53;;;;;;;17.20;32.53;98486.53;6087047;23;20009;-95
2024/02/09 11:13:25;;;;;;;7.53;3.33;;;;;;;17.23;32.16;98490.53;6064310;23;20017;-95
2024/02/09 11:15:57;;;;;;;7.75;3.42;;;;;;;17.07;32.08;98488.41;6092237;23;19998;-96
2024/02/09 11:19:22;;;;;;;9.48;3.40;;;;;;;17.10;32.37;98505.97;6092013;23;20002;-96
2024/02/09 12:02:35;;;;;;;8.43;4.18;;;;;;;17.66;32.86;98460.13;6185134;23;20013;-95
2024/02/09 12:19:57;;;;;;;8.85;3.65;;;;;;;17.09;33.47;98447.28;6225747;22;20108;-96
2024/02/09 12:22:30;;;;;;;9.60;3.40;;;;;;;17.07;33.55;98465.84;6153412;23;20024;-96
2024/02/09 12:25:11;;;;;;;9.23;4.43;;;;;;;17.09;33.40;98458.94;6199374;23;20004;-96
2024/02/09 12:27:41;;;;;;;5.60;3.38;;;;;;;16.97;33.59;98469.78;6171402;23;20004;-95
2024/02/09 12:45:53;;;;;;;3.72;2.38;;;;;;;17.27;32.46;98439.75;6193024;23;20059;-95
2024/02/09 12:48:55;;;;;;;7.70;2.90;;;;;;;17.30;32.22;98442.56;6122835;23;20020;-95
2024/02/09 12:51:24;;;;;;;8.65;2.55;;;;;;;17.45;31.81;98440.34;6178331;23;20001;-96
2024/02/09 12:53:49;;;;;;;10.73;3.70;;;;;;;17.45;32.36;98440.34;6112969;23;20344;-93
2024/02/09 12:56:18;;;;;;;7.15;2.88;;;;;;;17.30;32.43;98422.75;6137233;23;20064;-95
2024/02/09 12:58:44;;;;;;;10.73;5.68;;;;;;;17.55;32.41;98454.31;6137369;23;20428;-93
2024/02/09 13:01:17;;;;;;;15.27;3.17;;;;;;;17.49;32.06;98454.88;6162642;23;20001;-95
2024/02/09 13:10:38;;;;;;;;;;;;;;;;;;;;;
2024/02/09 13:14:06;;;;;;;6.80;2.50;;;;;;;17.66;32.42;98449.25;6132409;22;20018;-96
2024/02/09 13:17:03;;;;;;;8.93;2.95;;;;;;;17.71;32.15;98451.75;6177025;22;20138;-96
2024/02/09 13:19:35;;;;;;;10.63;4.10;;;;;;;17.73;32.35;98446.75;6206718;23;20012;-96
2024/02/09 13:29:41;;;;;;;;;;;;;;;;;;;;;
2024/02/09 13:32:16;;;;;;;14.38;3.58;;;;;;;17.74;32.83;98444.81;6088797;23;20135;-94
2024/02/09 13:47:22;;;;;;;9.30;4.50;;;;;;;17.66;34.31;98441.09;6226410;22;19923;-96
2024/02/09 14:04:44;;;;;;;14.10;4.00;;;;;;;17.50;34.42;98440.94;6221616;22;20460;-93
2024/02/09 14:07:12;;;;;;;10.85;3.63;;;;;;;17.42;34.21;98435.59;6145835;23;20016;-96
2024/02/09 14:09:50;;;;;;;9.93;3.75;;;;;;;17.32;34.08;98431.38;6172917;23;20035;-96
2024/02/09 14:13:07;;;;;;;;;;;;;;;;;;;;;
2024/02/09 14:16:37;;;;;;;7.43;2.97;;;;;;;17.12;33.75;98424.84;6214874;23;20024;-96
2024/02/09 14:19:12;;;;;;;11.45;2.90;;;;;;;17.12;33.62;98433.81;6185444;23;20024;-96
2024/02/09 14:21:38;;;;;;;5.75;2.75;;;;;;;17.14;33.25;98447.06;6148336;23;20008;-96
2024/02/09 14:24:03;;;;;;;7.85;3.67;;;;;;;17.18;33.46;98450.69;6149524;23;20035;-94
2024/02/09 14:26:56;;;;;;;7.90;3.10;;;;;;;17.17;33.10;98449.91;6149691;23;20079;-96
2024/02/09 14:29:31;;;;;;;8.80;3.38;;;;;;;17.14;33.64;98450.59;6203995;23;20004;-96
2024/02/09 14:32:04;;;;;;;9.65;2.90;;;;;;;17.19;33.46;98456.97;6154918;23;20000;-96
2024/02/09 14:34:48;;;;;;;;;;;;;;;;;;;;;
2024/02/09 14:45:19;;;;;;;;;;;;;;;;;;;;;
2024/02/09 14:50:47;;;;;;;7.90;3.30;;;;;;;16.79;34.40;98458.22;6233499;22;20051;-96
2024/02/09 15:03:32;;;;;;;11.75;3.65;;;;;;;16.47;35.57;98476.81;6225465;22;20008;-95
2024/02/09 15:06:12;;;;;;;7.03;3.55;;;;;;;16.28;35.56;98454.72;6194660;23;20012;-96
2024/02/09 15:23:31;;;;;;;14.15;4.75;;;;;;;15.82;36.52;98470.75;6207042;22;20036;-95
2024/02/09 15:50:36;;;;;;;18.92;7.78;;;;;;;14.89;40.24;98448.59;6195276;23;20032;-95
2024/02/09 15:53:17;;;;;;;23.73;8.82;;;;;;;14.79;40.87;98448.13;6133947;23;20028;-96
2024/02/09 16:04:44;;;;;;;33.05;17.75;;;;;;;14.54;41.79;98478.34;6225920;22;20363;-96
2024/02/09 16:07:27;;;;;;;37.40;21.27;;;;;;;14.39;41.40;98464.47;6205412;23;20052;-96
2024/02/09 16:28:35;;;;;;;40.83;19.63;;;;;;;13.95;43.64;98497.63;6234375;22;20028;-96
2024/02/09 16:32:01;;;;;;;;;;;;;;;;;;;;;
2024/02/09 17:12:13;;;;;;;30.58;16.67;;;;;;;12.65;47.63;98521.00;6208681;22;20110;-96
2024/02/09 17:20:26;;;;;;;60.70;26.33;;;;;;;12.40;48.45;98506.16;6205944;22;20025;-96
2024/02/09 17:23:28;;;;;;;;;;;;;;;;;;;;;
2024/02/09 17:26:12;;;;;;;27.83;13.75;;;;;;;12.40;47.92;98520.44;6112261;22;20020;-96
2024/02/09 22:45:05;;;;;;;25.05;12.20;;;;;;;9.55;57.02;98465.16;6215228;22;20094;-96
2024/02/09 22:47:32;;;;;;;26.15;12.95;;;;;;;9.53;57.20;98470.00;6146754;23;20016;-96
2024/02/09 22:50:01;;;;;;;29.35;13.90;;;;;;;9.47;57.24;98470.03;6145335;23;19996;-96
2024/02/09 22:52:27;;;;;;;24.75;12.48;;;;;;;9.38;56.95;98466.38;6144254;23;20099;-96
2024/02/09 22:54:55;;;;;;;21.10;11.50;;;;;;;9.29;57.52;98465.38;6144435;23;19997;-96
2024/02/09 22:57:22;;;;;;;26.02;12.38;;;;;;;9.35;57.46;98458.88;6145478;23;20004;-95
2024/02/09 22:59:47;;;;;;;27.25;12.85;;;;;;;9.30;57.13;98461.63;6144444;23;20015;-96
2024/02/09 23:02:19;;;;;;;19.60;12.73;;;;;;;9.27;57.75;98452.22;6147102;23;20008;-96
2024/02/09 23:04:52;;;;;;;21.60;11.32;;;;;;;9.22;57.97;98459.53;6148238;23;20008;-96
2024/02/09 23:07:23;;;;;;;24.58;11.85;;;;;;;9.19;57.96;98457.41;6148617;23;20111;-96
2024/02/09 23:09:51;;;;;;;27.75;12.45;;;;;;;9.22;58.02;98475.66;6146916;23;20497;-96
2024/02/09 23:12:17;;;;;;;29.58;13.73;;;;;;;9.16;58.04;98460.66;6144536;23;20004;-96
2024/02/09 23:14:49;;;;;;;28.65;12.93;;;;;;;9.26;58.22;98466.75;6144125;23;20060;-96
2024/02/09 23:17:18;;;;;;;28.25;13.07;;;;;;;9.29;58.44;98460.81;6145140;23;20005;-96
2024/02/09 23:19:45;;;;;;;25.90;12.35;;;;;;;9.20;58.22;98449.06;6170003;23;20431;-96
2024/02/09 23:22:14;;;;;;;25.25;11.80;;;;;;;9.22;58.39;98448.81;6146973;23;20007;-96
2024/02/09 23:24:42;;;;;;;27.55;12.30;;;;;;;9.07;58.44;98447.84;6171143;23;20009;-96
2024/02/09 23:27:08;;;;;;;24.27;11.80;;;;;;;9.08;58.37;98443.25;6144120;23;20533;-96
2024/02/09 23:29:39;;;;;;;22.50;11.27;;;;;;;9.12;58.55;98441.63;6144098;23;20001;-96
2024/02/09 23:32:08;;;;;;;32.35;12.82;;;;;;;9.09;58.72;98436.81;6145466;23;20080;-95
2024/02/09 23:34:36;;;;;;;24.55;12.25;;;;;;;9.05;58.70;98438.47;6144684;23;19992;-96
2024/02/09 23:37:03;;;;;;;20.90;11.70;;;;;;;9.09;58.74;98443.00;6145175;23;20020;-96
2024/02/09 23:39:31;;;;;;;21.15;9.88;;;;;;;9.05;58.65;98438.47;6143844;23;20375;-96
2024/02/09 23:42:02;;;;;;;18.27;9.60;;;;;;;9.08;58.58;98454.81;6145255;23;20394;-96
2024/02/09 23:44:32;;;;;;;22.07;11.27;;;;;;;9.01;58.98;98458.91;6145653;23;20005;-96
2024/02/09 23:46:59;;;;;;;21.67;10.35;;;;;;;8.86;59.34;98449.88;6145705;23;20336;-96
2024/02/09 23:49:25;;;;;;;19.73;10.50;;;;;;;8.96;59.20;98459.72;6145299;23;20055;-96
2024/02/09 23:51:53;;;;;;;19.90;10.32;;;;;;;8.93;59.17;98464.88;6144093;23;20008;-96
2024/02/09 23:54:21;;;;;;;22.85;10.65;;;;;;;8.97;59.23;98477.47;6145335;23;20450;-95
2024/02/09 23:56:49;;;;;;;18.10;10.10;;;;;;;8.81;59.70;98468.69;6145098;23;20004;-95
2024/02/09 23:59:15;;;;;;;20.90;10.00;;;;;;;8.87;59.45;98470.28;6146119;23;19997;-96
